Time;durP1;ratioP1;P1;durP2;ratioP2;P2;SDS_P1;SDS_P2;PMS_P1;PMS_P2;Temp;Humidity;BMP_temperature;BMP_pressure;BME280_temperature;BME280_humidity;BME280_pressure;Samples;Min_cycle;Max_cycle;Signal;HPM_P1;HPM_P2
2023/02/10 00:01:21;;;;;;;54.00;24.98;;;1.20;99.90;;;;;;5073345;28;20428;-53
2023/02/10 00:03:47;;;;;;;51.78;22.17;;;1.20;99.90;;;;;;5065591;28;20476;-57
2023/02/10 00:06:15;;;;;;;54.38;25.73;;;1.20;99.90;;;;;;5073851;28;20127;-54
2023/02/10 00:08:41;;;;;;;63.10;25.23;;;1.20;99.90;;;;;;5071693;28;20142;-53
2023/02/10 00:11:12;;;;;;;48.45;24.25;;;1.20;99.90;;;;;;5076987;28;20051;-55
2023/02/10 00:13:39;;;;;;;61.60;26.73;;;1.20;99.90;;;;;;5068088;28;20032;-57
2023/02/10 00:16:06;;;;;;;62.72;27.15;;;1.20;99.90;;;;;;5076816;28;20052;-51
2023/02/10 00:18:32;;;;;;;60.53;26.88;;;1.20;99.90;;;;;;5056920;28;20045;-56
2023/02/10 00:21:16;;;;;;;68.35;27.48;;;1.20;99.90;;;;;;5062044;28;20036;-54
2023/02/10 00:23:42;;;;;;;64.88;27.50;;;1.30;99.90;;;;;;5042595;28;20861;-49
2023/02/10 00:26:11;;;;;;;57.63;26.48;;;1.30;99.90;;;;;;5062623;28;20071;-56
2023/02/10 00:28:37;;;;;;;63.97;26.83;;;1.30;99.90;;;;;;5053482;28;20508;-57
2023/02/10 00:31:11;;;;;;;65.97;27.63;;;1.30;99.90;;;;;;5064277;28;20122;-53
2023/02/10 00:33:37;;;;;;;61.70;27.33;;;1.30;99.90;;;;;;5056793;28;20068;-55
2023/02/10 00:36:08;;;;;;;70.57;30.98;;;1.30;99.90;;;;;;5062957;28;20033;-52
2023/02/10 00:38:34;;;;;;;66.20;29.58;;;1.30;99.90;;;;;;5056648;28;20044;-50
2023/02/10 00:41:07;;;;;;;55.00;26.13;;;1.30;99.90;;;;;;5063850;28;20040;-51
2023/02/10 00:43:33;;;;;;;69.90;28.20;;;1.40;99.90;;;;;;5053830;28;20106;-56
2023/02/10 00:45:59;;;;;;;65.20;26.70;;;1.40;99.90;;;;;;5064407;28;20098;-54
2023/02/10 00:48:24;;;;;;;65.05;27.50;;;1.40;99.90;;;;;;5061612;28;20045;-54
2023/02/10 00:50:50;;;;;;;66.43;28.38;;;1.40;99.90;;;;;;5062943;28;20040;-55
2023/02/10 00:53:16;;;;;;;73.65;30.83;;;1.40;99.90;;;;;;5055426;28;20408;-53
2023/02/10 00:55:42;;;;;;;62.85;27.55;;;1.40;99.90;;;;;;5061285;28;20462;-57
2023/02/10 00:58:07;;;;;;;71.38;28.15;;;1.40;99.90;;;;;;5059137;28;20044;-55
2023/02/10 01:00:33;;;;;;;82.57;31.27;;;1.40;99.90;;;;;;5059007;28;20441;-53
2023/02/10 01:02:58;;;;;;;80.85;30.83;;;1.40;99.90;;;;;;5058080;28;20029;-57
2023/02/10 01:05:24;;;;;;;71.88;30.10;;;1.40;99.90;;;;;;5060837;28;20036;-55
2023/02/10 01:07:52;;;;;;;76.82;30.17;;;1.40;99.90;;;;;;5058189;28;20055;-51
2023/02/10 01:10:17;;;;;;;88.65;34.60;;;1.40;99.90;;;;;;5056762;28;20044;-52
2023/02/10 01:12:43;;;;;;;82.20;31.08;;;1.40;99.90;;;;;;5053989;28;20032;-55
2023/02/10 01:15:09;;;;;;;79.88;30.05;;;1.40;99.90;;;;;;5074985;28;20037;-49
2023/02/10 01:17:34;;;;;;;77.28;31.30;;;1.40;99.90;;;;;;5055543;28;20036;-54
2023/02/10 01:20:00;;;;;;;88.70;31.10;;;1.40;99.90;;;;;;5058974;28;20028;-57
2023/02/10 01:22:25;;;;;;;97.72;35.30;;;1.40;99.90;;;;;;5056288;28;20036;-53
2023/02/10 01:24:51;;;;;;;83.60;32.80;;;1.40;99.90;;;;;;5059616;28;20036;-54
2023/02/10 01:27:16;;;;;;;82.15;31.17;;;1.30;99.90;;;;;;5056622;28;20052;-56
2023/02/10 01:29:42;;;;;;;71.72;29.65;;;1.30;99.90;;;;;;5060595;28;20037;-53
2023/02/10 01:32:07;;;;;;;88.55;32.90;;;1.40;99.90;;;;;;5059716;28;20052;-52
2023/02/10 01:34:33;;;;;;;96.15;35.78;;;1.50;99.90;;;;;;5059230;28;20258;-51
2023/02/10 01:36:59;;;;;;;78.78;32.75;;;1.40;99.90;;;;;;5057901;28;20052;-52
2023/02/10 01:39:24;;;;;;;93.63;35.55;;;1.50;99.90;;;;;;5059974;28;20036;-53
2023/02/10 01:41:50;;;;;;;87.38;33.80;;;1.50;99.90;;;;;;5058547;28;20473;-54
2023/02/10 01:44:21;;;;;;;85.72;32.63;;;1.50;99.90;;;;;;5061699;28;20510;-49
2023/02/10 01:46:48;;;;;;;97.90;36.10;;;1.50;99.90;;;;;;5058527;28;20389;-58
2023/02/10 01:49:17;;;;;;;89.07;33.25;;;1.50;99.90;;;;;;5057953;28;20036;-51
2023/02/10 01:51:53;;;;;;;91.57;34.17;;;1.60;99.90;;;;;;5060171;28;20036;-51
2023/02/10 01:54:26;;;;;;;85.25;35.90;;;1.60;99.90;;;;;;5057530;28;20488;-57
2023/02/10 01:56:52;;;;;;;91.85;35.10;;;1.60;99.90;;;;;;5058815;28;20055;-53
2023/02/10 01:59:20;;;;;;;104.60;36.65;;;1.60;99.90;;;;;;5060764;28;20037;-53
2023/02/10 02:01:46;;;;;;;113.78;40.28;;;1.60;99.90;;;;;;5056166;28;20095;-54
2023/02/10 02:04:12;;;;;;;120.28;40.00;;;1.60;99.90;;;;;;5057374;28;20036;-52
2023/02/10 02:06:38;;;;;;;114.95;38.22;;;1.60;99.90;;;;;;5058975;28;20047;-51
2023/02/10 02:09:05;;;;;;;90.00;35.53;;;1.60;99.90;;;;;;5058966;28;20067;-51
2023/02/10 02:11:58;;;;;;;91.90;33.40;;;1.60;99.90;;;;;;5058608;28;20607;-52
2023/02/10 02:14:24;;;;;;;81.68;31.95;;;1.60;99.90;;;;;;5058442;28;20044;-53
2023/02/10 02:17:28;;;;;;;93.38;33.97;;;1.70;99.90;;;;;;5059354;28;20378;-54
2023/02/10 02:23:07;;;;;;;93.22;33.38;;;1.70;99.90;;;;;;5056646;28;20036;-50
2023/02/10 02:26:14;;;;;;;81.72;32.40;;;1.70;99.90;;;;;;5060492;28;20472;-52
2023/02/10 02:29:04;;;;;;;82.32;33.28;;;1.70;99.90;;;;;;5049925;28;20087;-53
2023/02/10 02:31:51;;;;;;;83.55;31.15;;;1.80;99.90;;;;;;5056868;28;20063;-48
2023/02/10 02:34:38;;;;;;;95.20;35.25;;;1.80;99.90;;;;;;5059424;28;20032;-52
2023/02/10 02:37:16;;;;;;;83.63;34.50;;;1.80;99.90;;;;;;5053552;28;20068;-56
2023/02/10 02:39:42;;;;;;;86.60;33.42;;;1.80;99.90;;;;;;5054224;28;20032;-54
2023/02/10 02:42:14;;;;;;;89.70;33.92;;;1.80;99.90;;;;;;5058193;28;20075;-54
2023/02/10 02:44:39;;;;;;;80.88;31.92;;;1.80;99.90;;;;;;5058726;28;20048;-50
2023/02/10 02:47:24;;;;;;;93.43;33.25;;;1.80;99.90;;;;;;5056508;28;20033;-51
2023/02/10 02:50:24;;;;;;;81.88;33.03;;;1.80;99.90;;;;;;5061323;28;20117;-53
2023/02/10 02:53:06;;;;;;;83.07;33.25;;;1.80;99.90;;;;;;4969248;28;20535;-53
2023/02/10 02:55:50;;;;;;;81.55;32.65;;;1.80;99.90;;;;;;5059702;28;20132;-54
2023/02/10 02:58:20;;;;;;;85.45;34.70;;;1.80;99.90;;;;;;5053433;28;20035;-53
2023/02/10 03:00:48;;;;;;;92.43;37.22;;;1.80;99.90;;;;;;5056973;28;20072;-56
2023/02/10 03:03:15;;;;;;;100.50;39.15;;;1.80;99.90;;;;;;5055506;28;20040;-52
2023/02/10 03:05:40;;;;;;;89.57;37.38;;;1.80;99.90;;;;;;5056835;28;20139;-54
2023/02/10 03:08:06;;;;;;;108.15;40.50;;;1.80;99.90;;;;;;5049792;28;20147;-55
2023/02/10 03:10:32;;;;;;;97.40;36.92;;;1.80;99.90;;;;;;5050580;28;20029;-53
2023/02/10 03:12:58;;;;;;;95.82;37.80;;;1.80;99.90;;;;;;5053979;28;20098;-52
2023/02/10 03:15:23;;;;;;;99.30;38.58;;;1.80;99.90;;;;;;5056967;28;20175;-51
2023/02/10 03:17:49;;;;;;;90.43;35.80;;;1.80;99.90;;;;;;5053973;28;20067;-54
2023/02/10 03:20:15;;;;;;;83.55;34.85;;;1.80;99.90;;;;;;5060620;28;20040;-52
2023/02/10 03:22:41;;;;;;;85.72;35.20;;;1.80;99.90;;;;;;5055889;28;20397;-50
2023/02/10 03:25:08;;;;;;;94.57;37.63;;;1.80;99.90;;;;;;5054376;28;20037;-51
2023/02/10 03:27:33;;;;;;;89.45;34.35;;;1.80;99.90;;;;;;5052888;28;20045;-48
2023/02/10 03:29:59;;;;;;;93.57;34.75;;;1.80;99.90;;;;;;5061691;28;20488;-48
2023/02/10 03:32:24;;;;;;;88.05;34.70;;;1.80;99.90;;;;;;5055584;28;20062;-52
2023/02/10 03:34:50;;;;;;;78.25;33.03;;;1.80;99.90;;;;;;5063503;28;20067;-55
2023/02/10 03:37:16;;;;;;;87.43;34.10;;;1.80;99.90;;;;;;5051932;28;20041;-53
2023/02/10 03:39:41;;;;;;;87.15;33.95;;;1.80;99.90;;;;;;5049359;28;20040;-48
2023/02/10 03:42:07;;;;;;;90.30;34.70;;;1.70;99.90;;;;;;5058841;28;20041;-56
2023/02/10 03:44:32;;;;;;;86.75;34.70;;;1.70;99.90;;;;;;5057307;28;20033;-51
2023/02/10 03:46:58;;;;;;;81.15;33.22;;;1.70;99.90;;;;;;5056496;28;20393;-53
2023/02/10 03:49:24;;;;;;;95.10;36.53;;;1.80;99.90;;;;;;5059324;28;20040;-55
2023/02/10 03:51:49;;;;;;;98.90;38.63;;;1.80;99.90;;;;;;5059849;28;20223;-50
2023/02/10 03:54:15;;;;;;;92.13;33.85;;;1.70;99.90;;;;;;5060123;28;20048;-55
2023/02/10 03:56:40;;;;;;;88.15;34.30;;;1.70;99.90;;;;;;5058483;28;20055;-50
2023/02/10 03:59:06;;;;;;;89.38;36.08;;;1.70;99.90;;;;;;5059669;28;20100;-53
2023/02/10 04:01:33;;;;;;;92.45;35.10;;;1.70;99.90;;;;;;5063681;28;20162;-55
2023/02/10 04:03:59;;;;;;;86.40;33.22;;;1.70;99.90;;;;;;5059176;28;20397;-56
2023/02/10 04:06:25;;;;;;;85.45;34.55;;;1.60;99.90;;;;;;5063746;28;20050;-54
2023/02/10 04:08:51;;;;;;;87.88;33.25;;;1.60;99.90;;;;;;5057081;28;20147;-52
2023/02/10 04:11:16;;;;;;;79.35;31.45;;;1.60;99.90;;;;;;5061733;28;20514;-53
2023/02/10 04:13:42;;;;;;;77.53;30.77;;;1.60;99.90;;;;;;5059251;28;20123;-49
2023/02/10 04:16:13;;;;;;;88.50;33.67;;;1.60;99.90;;;;;;5063764;28;20036;-53
2023/02/10 04:18:39;;;;;;;78.32;31.50;;;1.50;99.90;;;;;;5059374;28;20043;-56
2023/02/10 04:21:06;;;;;;;79.95;32.85;;;1.50;99.90;;;;;;5060351;28;20040;-50
2023/02/10 04:23:32;;;;;;;77.53;31.95;;;1.60;99.90;;;;;;5055822;28;20044;-53
2023/02/10 04:25:58;;;;;;;75.28;30.85;;;1.60;99.90;;;;;;5059761;28;20122;-55
2023/02/10 04:28:24;;;;;;;68.68;28.85;;;1.60;99.90;;;;;;5058197;28;20128;-54
2023/02/10 04:30:55;;;;;;;70.18;28.85;;;1.60;99.90;;;;;;5065022;28;20514;-50
2023/02/10 04:33:21;;;;;;;68.75;28.40;;;1.60;99.90;;;;;;5059733;28;20071;-56
2023/02/10 04:35:51;;;;;;;69.10;28.35;;;1.50;99.90;;;;;;5063212;28;20037;-54
2023/02/10 04:38:17;;;;;;;79.78;30.70;;;1.50;99.90;;;;;;5057284;28;20049;-51
2023/02/10 04:40:43;;;;;;;80.45;29.75;;;1.50;99.90;;;;;;5061302;28;20039;-54
2023/02/10 04:43:10;;;;;;;67.38;29.02;;;1.40;99.90;;;;;;5058970;28;20028;-50
2023/02/10 04:45:36;;;;;;;70.40;29.27;;;1.50;99.90;;;;;;5061510;28;20128;-54
2023/02/10 04:48:02;;;;;;;65.40;26.35;;;1.50;99.90;;;;;;5054035;28;20045;-51
2023/02/10 04:50:28;;;;;;;75.10;30.30;;;1.50;99.90;;;;;;5057146;28;20082;-56
2023/02/10 04:52:54;;;;;;;72.45;30.70;;;1.50;99.90;;;;;;5054794;28;20028;-54
2023/02/10 04:55:19;;;;;;;73.57;28.02;;;1.50;99.90;;;;;;5063146;28;20029;-51
2023/02/10 04:57:45;;;;;;;73.20;29.63;;;1.50;99.90;;;;;;5058664;28;20040;-50
2023/02/10 05:00:12;;;;;;;73.15;29.30;;;1.50;99.90;;;;;;5061830;28;20044;-54
2023/02/10 05:02:37;;;;;;;73.47;30.40;;;1.50;99.90;;;;;;5057161;28;20094;-50
2023/02/10 05:05:03;;;;;;;70.60;28.88;;;1.40;99.90;;;;;;5064859;28;20028;-48
2023/02/10 05:07:30;;;;;;;62.78;28.15;;;1.40;99.90;;;;;;5056145;28;20123;-52
2023/02/10 05:09:55;;;;;;;66.80;29.83;;;1.40;99.90;;;;;;5063738;28;20037;-48
2023/02/10 05:12:21;;;;;;;68.70;28.88;;;1.30;99.90;;;;;;5057616;28;20056;-57
2023/02/10 05:14:46;;;;;;;76.50;29.63;;;1.30;99.90;;;;;;5061033;28;20043;-55
2023/02/10 05:17:12;;;;;;;67.95;28.48;;;1.30;99.90;;;;;;5059777;28;20047;-52
2023/02/10 05:19:38;;;;;;;61.28;27.08;;;1.30;99.90;;;;;;5061631;28;20037;-55
2023/02/10 05:22:03;;;;;;;57.55;25.55;;;1.30;99.90;;;;;;5059928;28;20203;-55
2023/02/10 05:24:29;;;;;;;63.78;26.15;;;1.20;99.90;;;;;;5053755;28;20045;-52
2023/02/10 05:26:54;;;;;;;61.40;26.55;;;1.20;99.90;;;;;;5061394;28;20048;-56
2023/02/10 05:29:20;;;;;;;54.75;25.35;;;1.20;99.90;;;;;;5056843;28;20394;-54
2023/02/10 05:31:46;;;;;;;65.25;25.30;;;1.10;99.90;;;;;;5060250;28;20523;-56
2023/02/10 05:34:11;;;;;;;56.97;23.58;;;1.00;99.90;;;;;;5058076;28;20040;-52
2023/02/10 05:36:37;;;;;;;49.67;22.80;;;1.00;99.90;;;;;;5057659;28;20040;-57
2023/02/10 05:41:47;;;;;;;54.55;21.58;;;0.80;99.90;;;;;;5056710;28;20074;-52
2023/02/10 05:44:13;;;;;;;52.75;22.90;;;0.80;99.90;;;;;;5061073;28;20523;-54
2023/02/10 05:46:38;;;;;;;54.28;23.52;;;0.70;99.90;;;;;;5058665;28;20037;-50
2023/02/10 05:49:04;;;;;;;53.50;21.08;;;0.70;99.90;;;;;;5059348;28;20042;-54
2023/02/10 05:51:29;;;;;;;47.20;20.90;;;0.60;99.90;;;;;;5053365;28;20041;-51
2023/02/10 05:53:55;;;;;;;45.65;20.45;;;0.60;99.90;;;;;;5057587;28;20551;-49
2023/02/10 05:56:20;;;;;;;48.28;20.27;;;0.70;99.90;;;;;;5059494;28;20079;-51
2023/02/10 05:58:46;;;;;;;55.85;22.92;;;0.60;99.90;;;;;;5051584;28;20052;-51
2023/02/10 06:01:12;;;;;;;58.83;22.83;;;0.60;99.90;;;;;;5060887;28;20039;-52
2023/02/10 06:03:37;;;;;;;51.60;22.45;;;0.60;99.90;;;;;;5054370;28;20492;-49
2023/02/10 06:06:03;;;;;;;57.65;23.73;;;0.60;99.90;;;;;;5061148;28;20080;-51
2023/02/10 06:08:29;;;;;;;54.78;24.02;;;0.60;99.90;;;;;;5054619;28;20040;-55
2023/02/10 06:10:54;;;;;;;54.55;22.48;;;0.60;99.90;;;;;;5058772;28;20052;-50
2023/02/10 06:13:20;;;;;;;53.30;22.63;;;0.50;99.90;;;;;;5054554;28;20032;-50
2023/02/10 06:15:46;;;;;;;53.60;23.40;;;0.50;99.90;;;;;;5059357;28;20037;-52
2023/02/10 06:18:11;;;;;;;46.30;21.13;;;0.50;99.90;;;;;;5052853;28;20040;-50
2023/02/10 06:20:37;;;;;;;56.65;22.25;;;0.50;99.90;;;;;;5060404;28;20048;-54
2023/02/10 06:23:03;;;;;;;50.08;22.05;;;0.50;99.90;;;;;;5053604;28;20270;-53
2023/02/10 06:25:28;;;;;;;53.33;22.67;;;0.50;99.90;;;;;;5059418;28;20068;-54
2023/02/10 06:27:54;;;;;;;53.88;21.00;;;0.50;99.90;;;;;;5057722;28;20040;-56
2023/02/10 06:30:20;;;;;;;50.05;21.65;;;0.50;99.90;;;;;;5056150;28;20064;-56
2023/02/10 06:32:45;;;;;;;49.53;20.08;;;0.50;99.90;;;;;;5053956;28;20037;-54
2023/02/10 06:35:11;;;;;;;44.10;19.30;;;0.50;99.90;;;;;;5051328;28;20567;-48
2023/02/10 06:37:36;;;;;;;47.83;20.13;;;0.50;99.90;;;;;;5053443;28;20062;-55
2023/02/10 06:40:06;;;;;;;48.67;20.55;;;0.40;99.90;;;;;;5055648;28;20036;-53
2023/02/10 06:42:32;;;;;;;52.55;20.05;;;0.40;99.90;;;;;;5048526;28;20119;-57
2023/02/10 06:44:58;;;;;;;49.40;19.40;;;0.40;99.90;;;;;;5050483;28;20811;-51
2023/02/10 06:47:24;;;;;;;48.38;20.25;;;0.40;99.90;;;;;;5053390;28;20094;-52
2023/02/10 06:49:49;;;;;;;51.63;19.98;;;0.30;99.90;;;;;;5060724;28;20028;-52
2023/02/10 06:52:15;;;;;;;41.08;17.58;;;0.30;99.90;;;;;;5057818;28;20036;-50
2023/02/10 06:54:41;;;;;;;40.63;18.50;;;0.30;99.90;;;;;;5059449;28;20483;-53
2023/02/10 06:57:07;;;;;;;45.13;18.73;;;0.30;99.90;;;;;;5053432;28;20033;-52
2023/02/10 06:59:33;;;;;;;44.17;18.65;;;0.30;99.90;;;;;;5056341;28;20032;-48
2023/02/10 07:02:00;;;;;;;42.13;17.08;;;0.20;99.90;;;;;;5054014;28;20032;-56
2023/02/10 07:04:30;;;;;;;43.38;18.25;;;0.20;99.90;;;;;;5061598;28;20654;-57
2023/02/10 07:06:57;;;;;;;41.55;18.45;;;0.20;99.90;;;;;;5055097;28;20455;-52
2023/02/10 07:09:23;;;;;;;46.22;19.27;;;0.20;99.90;;;;;;5052203;28;20127;-52
2023/02/10 07:11:49;;;;;;;45.47;19.63;;;0.30;99.90;;;;;;5055495;28;20145;-49
2023/02/10 07:14:15;;;;;;;45.03;19.98;;;0.30;99.90;;;;;;5073788;28;20086;-53
2023/02/10 07:16:41;;;;;;;48.08;18.45;;;0.30;99.90;;;;;;5056587;28;20032;-54
2023/02/10 07:19:07;;;;;;;46.28;19.95;;;0.30;99.90;;;;;;5056861;28;20029;-54
2023/02/10 07:21:32;;;;;;;52.53;21.45;;;0.30;99.90;;;;;;5053995;28;20531;-51
2023/02/10 07:24:00;;;;;;;39.13;18.02;;;0.30;99.90;;;;;;5054385;28;20036;-51
2023/02/10 07:26:26;;;;;;;44.65;19.10;;;0.40;99.90;;;;;;5059727;28;20040;-56
2023/02/10 07:28:51;;;;;;;54.65;21.42;;;0.50;99.90;;;;;;5053706;28;20051;-49
2023/02/10 07:31:17;;;;;;;42.75;18.80;;;0.60;99.90;;;;;;5062487;28;20523;-55
2023/02/10 07:33:43;;;;;;;56.17;22.10;;;0.60;99.90;;;;;;5054117;28;20497;-53
2023/02/10 07:36:08;;;;;;;45.67;20.45;;;0.70;99.90;;;;;;5056607;28;20044;-55
2023/02/10 07:38:35;;;;;;;48.35;20.23;;;0.70;99.90;;;;;;5058119;28;20036;-53
2023/02/10 07:41:01;;;;;;;49.40;21.15;;;0.80;99.90;;;;;;5060737;28;20101;-55
2023/02/10 07:43:27;;;;;;;58.47;24.25;;;0.90;99.90;;;;;;5056565;28;20523;-53
2023/02/10 07:45:52;;;;;;;48.53;22.30;;;0.90;99.90;;;;;;5065080;28;20047;-53
2023/02/10 07:48:18;;;;;;;52.00;23.65;;;1.00;99.90;;;;;;5058067;28;20040;-56
2023/02/10 07:50:46;;;;;;;58.83;23.17;;;1.10;99.90;;;;;;5062570;28;20039;-59
2023/02/10 07:53:12;;;;;;;49.67;22.83;;;1.20;99.90;;;;;;5060109;28;20044;-59
2023/02/10 07:55:38;;;;;;;48.20;23.13;;;1.30;99.90;;;;;;5059197;28;20094;-59
2023/02/10 07:58:06;;;;;;;50.35;22.02;;;1.50;99.90;;;;;;5055675;28;20044;-58
2023/02/10 08:00:32;;;;;;;49.65;23.58;;;1.80;99.90;;;;;;5055308;28;20124;-57
2023/02/10 08:02:57;;;;;;;46.33;22.38;;;1.80;99.90;;;;;;5053221;28;20678;-56
2023/02/10 08:05:23;;;;;;;43.00;20.83;;;1.70;99.90;;;;;;5057037;28;20043;-55
2023/02/10 08:07:48;;;;;;;48.92;21.08;;;1.60;99.90;;;;;;5056182;28;20044;-57
2023/02/10 08:10:14;;;;;;;49.10;22.35;;;1.60;99.90;;;;;;5062452;28;20068;-53
2023/02/10 08:12:40;;;;;;;45.15;20.88;;;1.50;99.90;;;;;;5057119;28;20039;-49
2023/02/10 08:15:07;;;;;;;49.05;20.98;;;1.50;99.90;;;;;;5055407;28;20496;-50
2023/02/10 08:17:33;;;;;;;49.85;22.35;;;1.50;99.90;;;;;;5059699;28;20036;-53
2023/02/10 08:19:59;;;;;;;47.17;21.70;;;1.50;99.90;;;;;;5060521;28;20060;-53
2023/02/10 08:22:25;;;;;;;42.22;20.77;;;1.50;99.90;;;;;;5056123;28;20029;-55
2023/02/10 08:24:50;;;;;;;50.95;21.70;;;1.60;99.90;;;;;;5055285;28;20183;-50
2023/02/10 08:27:16;;;;;;;46.58;21.13;;;1.70;99.90;;;;;;5056456;28;20036;-47
2023/02/10 08:29:42;;;;;;;56.65;23.70;;;1.70;99.90;;;;;;5055819;28;20123;-55
2023/02/10 08:32:07;;;;;;;49.22;22.85;;;1.60;99.90;;;;;;5057083;28;20041;-49
2023/02/10 08:34:33;;;;;;;45.22;21.42;;;1.60;99.90;;;;;;5057694;28;20033;-55
2023/02/10 08:36:59;;;;;;;48.70;23.58;;;1.70;99.90;;;;;;5059294;28;20051;-54
2023/02/10 08:39:28;;;;;;;47.08;22.50;;;1.70;99.90;;;;;;5056531;28;20029;-54
2023/02/10 08:41:54;;;;;;;45.30;20.95;;;1.80;99.90;;;;;;5056326;28;20033;-50
2023/02/10 08:44:19;;;;;;;46.00;20.35;;;1.90;99.90;;;;;;5060091;28;20127;-54
2023/02/10 08:46:45;;;;;;;47.47;21.80;;;2.10;99.90;;;;;;5063167;28;20072;-54
2023/02/10 08:49:10;;;;;;;39.58;18.42;;;2.10;99.90;;;;;;5061161;28;20063;-54
2023/02/10 08:51:38;;;;;;;45.55;20.23;;;2.20;99.90;;;;;;5059302;28;20064;-53
2023/02/10 08:54:05;;;;;;;40.03;20.58;;;2.30;99.90;;;;;;5056569;28;20044;-52
2023/02/10 08:56:31;;;;;;;39.78;20.10;;;2.40;99.90;;;;;;5059423;28;20070;-55
2023/02/10 08:58:56;;;;;;;41.38;19.40;;;2.40;99.90;;;;;;5054359;28;20024;-59
2023/02/10 09:01:27;;;;;;;42.45;19.17;;;2.40;99.90;;;;;;5063712;28;20028;-55
2023/02/10 09:03:54;;;;;;;41.45;18.00;;;2.40;99.90;;;;;;5057447;28;20043;-53
2023/02/10 09:06:27;;;;;;;39.35;17.70;;;2.50;99.90;;;;;;5059918;28;20527;-56
2023/02/10 09:08:53;;;;;;;46.80;19.33;;;2.50;99.90;;;;;;5058941;28;20612;-50
2023/02/10 09:11:23;;;;;;;37.90;17.35;;;2.60;99.90;;;;;;5061885;28;20052;-56
2023/02/10 09:13:50;;;;;;;38.65;19.27;;;2.60;99.90;;;;;;5058501;28;20043;-54
2023/02/10 09:16:15;;;;;;;42.50;18.30;;;2.60;99.90;;;;;;5061959;28;20044;-54
2023/02/10 09:18:41;;;;;;;36.42;17.70;;;2.70;99.90;;;;;;5059400;28;20044;-55
2023/02/10 09:21:06;;;;;;;42.60;18.23;;;2.80;99.90;;;;;;5062739;28;20408;-58
2023/02/10 09:23:32;;;;;;;39.70;17.27;;;2.90;99.90;;;;;;5055317;28;20876;-55
2023/02/10 09:25:59;;;;;;;48.58;20.70;;;2.90;99.90;;;;;;5063272;28;20063;-52
2023/02/10 09:28:26;;;;;;;43.38;20.90;;;3.00;99.90;;;;;;5056113;28;20045;-55
2023/02/10 09:30:52;;;;;;;41.25;19.35;;;3.00;99.90;;;;;;5061843;28;20044;-55
2023/02/10 09:33:18;;;;;;;46.63;19.80;;;3.10;99.90;;;;;;5054560;28;20110;-54
2023/02/10 09:35:44;;;;;;;41.45;19.38;;;3.10;99.90;;;;;;5059410;28;20036;-49
2023/02/10 09:38:11;;;;;;;46.88;20.90;;;3.20;99.90;;;;;;5057490;28;20036;-48
2023/02/10 09:40:55;;;;;;;40.80;18.95;;;3.10;99.90;;;;;;5056803;28;20033;-50
2023/02/10 09:43:52;;;;;;;43.35;21.23;;;3.00;99.90;;;;;;5050877;28;20037;-52
2023/02/10 09:46:33;;;;;;;44.65;19.60;;;2.90;99.90;;;;;;5072713;28;20902;-52
2023/02/10 09:49:36;;;;;;;44.17;20.25;;;2.90;99.90;;;;;;5060822;28;20064;-54
2023/02/10 09:52:17;;;;;;;43.30;21.42;;;2.90;99.90;;;;;;5055734;28;20029;-54
2023/02/10 09:54:45;;;;;;;44.58;20.52;;;3.00;99.90;;;;;;5057936;28;20032;-53
2023/02/10 09:57:19;;;;;;;43.92;20.35;;;3.00;99.90;;;;;;5053675;28;20044;-56
2023/02/10 09:59:48;;;;;;;51.00;22.10;;;3.10;99.90;;;;;;5057983;28;20535;-54
2023/02/10 10:02:30;;;;;;;48.28;21.80;;;3.20;99.90;;;;;;5060025;28;20116;-50
2023/02/10 10:04:59;;;;;;;45.92;21.27;;;3.30;99.90;;;;;;5054533;28;20044;-55
2023/02/10 10:07:38;;;;;;;42.20;21.63;;;3.40;99.90;;;;;;5051622;28;20044;-52
2023/02/10 10:10:30;;;;;;;50.42;21.83;;;3.50;99.90;;;;;;5054692;28;20045;-54
2023/02/10 10:12:56;;;;;;;55.97;22.58;;;3.50;99.90;;;;;;5049679;28;20117;-54
2023/02/10 10:15:27;;;;;;;47.72;20.85;;;3.50;99.90;;;;;;5056102;28;20045;-55
2023/02/10 10:18:19;;;;;;;43.35;20.65;;;3.50;99.90;;;;;;5050218;28;20124;-54
2023/02/10 10:20:57;;;;;;;38.08;19.08;;;3.50;99.90;;;;;;5057242;28;20072;-57
2023/02/10 10:23:44;;;;;;;41.22;19.77;;;3.60;99.90;;;;;;5052441;28;20043;-55
2023/02/10 10:26:19;;;;;;;56.00;21.98;;;3.50;99.90;;;;;;5061508;28;20033;-57
2023/02/10 10:28:56;;;;;;;42.60;20.17;;;3.60;99.90;;;;;;5055848;28;20794;-50
2023/02/10 10:31:26;;;;;;;47.38;21.52;;;3.70;99.90;;;;;;5054006;28;20131;-57
2023/02/10 10:34:06;;;;;;;40.65;20.45;;;3.70;99.90;;;;;;5050074;28;20041;-54
2023/02/10 10:36:34;;;;;;;52.70;23.15;;;3.70;99.90;;;;;;5052732;28;20056;-51
2023/02/10 10:39:14;;;;;;;50.53;21.83;;;3.70;99.90;;;;;;5057680;28;20035;-56
2023/02/10 10:41:41;;;;;;;41.90;20.17;;;3.80;99.90;;;;;;5056810;28;20033;-55
2023/02/10 10:44:10;;;;;;;43.55;20.17;;;4.00;99.90;;;;;;5052892;28;20072;-51
2023/02/10 10:46:43;;;;;;;44.88;21.73;;;4.10;99.90;;;;;;5057399;28;20567;-56
2023/02/10 10:49:09;;;;;;;46.88;20.27;;;4.10;99.90;;;;;;5059886;28;20044;-50
2023/02/10 10:51:35;;;;;;;41.50;20.38;;;4.00;99.90;;;;;;5058678;28;20044;-50
2023/02/10 10:54:02;;;;;;;40.38;19.80;;;4.10;99.90;;;;;;5054406;28;20492;-50
2023/02/10 10:56:44;;;;;;;45.72;20.88;;;4.10;99.90;;;;;;5060415;28;20037;-55
2023/02/10 10:59:27;;;;;;;50.05;21.50;;;4.20;99.90;;;;;;5055549;28;20048;-57
2023/02/10 11:01:52;;;;;;;44.05;20.15;;;4.10;99.90;;;;;;5055043;28;20082;-59
2023/02/10 11:04:28;;;;;;;41.83;20.17;;;3.90;99.90;;;;;;5053416;28;20137;-59
2023/02/10 11:06:56;;;;;;;42.35;20.98;;;3.70;99.90;;;;;;5054339;28;20159;-51
2023/02/10 11:09:32;;;;;;;46.10;21.27;;;3.50;99.90;;;;;;5055823;28;20057;-60
2023/02/10 11:12:17;;;;;;;46.38;21.65;;;3.40;99.90;;;;;;5055734;28;20036;-56
2023/02/10 11:14:45;;;;;;;43.05;21.38;;;3.40;99.90;;;;;;5055725;28;20062;-54
2023/02/10 11:17:22;;;;;;;46.58;22.05;;;3.40;99.90;;;;;;5054476;28;20067;-52
2023/02/10 11:19:56;;;;;;;50.03;20.55;;;3.30;99.90;;;;;;5059095;28;20037;-56
2023/02/10 11:22:22;;;;;;;46.55;21.30;;;3.30;99.90;;;;;;5055024;28;20048;-52
2023/02/10 11:24:53;;;;;;;45.40;20.95;;;3.30;99.90;;;;;;5056950;28;20029;-56
2023/02/10 11:27:19;;;;;;;47.90;21.52;;;3.40;99.90;;;;;;5051525;28;20036;-57
2023/02/10 11:29:52;;;;;;;45.03;20.92;;;3.20;99.90;;;;;;5056901;28;20040;-55
2023/02/10 11:32:30;;;;;;;43.85;21.38;;;3.30;99.90;;;;;;5051445;28;20111;-53
2023/02/10 11:34:58;;;;;;;50.65;21.67;;;3.20;99.90;;;;;;5055144;28;20646;-56
2023/02/10 11:37:33;;;;;;;42.95;19.75;;;3.20;99.90;;;;;;5052781;28;20036;-55
2023/02/10 11:40:01;;;;;;;43.95;19.17;;;3.30;99.90;;;;;;5058137;28;20028;-57
2023/02/10 11:42:32;;;;;;;44.30;20.08;;;3.50;99.90;;;;;;5054945;28;20045;-58
2023/02/10 11:45:26;;;;;;;42.20;20.15;;;3.50;99.90;;;;;;5057843;28;20396;-56
2023/02/10 11:48:15;;;;;;;43.00;19.67;;;3.50;99.90;;;;;;5054325;28;20041;-52
2023/02/10 11:50:41;;;;;;;44.03;18.75;;;3.50;99.90;;;;;;5059764;28;20438;-53
2023/02/10 11:53:18;;;;;;;43.70;20.73;;;3.50;99.90;;;;;;5053150;28;20044;-55
2023/02/10 11:55:57;;;;;;;46.70;20.70;;;3.70;99.90;;;;;;5060452;28;20051;-54
2023/02/10 11:58:58;;;;;;;39.97;18.38;;;3.90;99.90;;;;;;5052923;28;20045;-56
2023/02/10 12:01:38;;;;;;;41.60;18.52;;;3.90;99.90;;;;;;5058048;28;20048;-57
2023/02/10 12:04:23;;;;;;;39.53;17.80;;;3.80;99.90;;;;;;5060314;28;20039;-51
2023/02/10 12:07:03;;;;;;;44.10;18.80;;;3.80;99.90;;;;;;5057016;28;20134;-52
2023/02/10 12:09:43;;;;;;;36.92;17.83;;;3.70;99.90;;;;;;5060652;28;20039;-55
2023/02/10 12:12:26;;;;;;;44.38;19.30;;;3.50;99.90;;;;;;5053888;28;20622;-56
2023/02/10 12:15:16;;;;;;;39.03;18.08;;;3.40;99.90;;;;;;5061884;28;20052;-55
2023/02/10 12:18:04;;;;;;;40.35;19.15;;;3.40;99.90;;;;;;5061411;28;20057;-57
2023/02/10 12:21:02;;;;;;;41.92;17.83;;;3.40;99.90;;;;;;5062502;28;20043;-57
2023/02/10 12:23:50;;;;;;;42.60;19.50;;;3.30;99.90;;;;;;5055523;28;20049;-58
2023/02/10 12:26:33;;;;;;;39.38;18.58;;;3.50;99.90;;;;;;5058393;28;20033;-51
2023/02/10 12:29:02;;;;;;;46.08;21.00;;;3.50;99.90;;;;;;5061943;28;20040;-54
2023/02/10 12:31:45;;;;;;;43.08;18.58;;;3.60;99.90;;;;;;5057978;28;20055;-52
2023/02/10 12:34:36;;;;;;;50.13;20.15;;;3.70;99.90;;;;;;5058945;28;20036;-55
2023/02/10 12:37:32;;;;;;;43.30;19.58;;;3.80;99.90;;;;;;5062481;28;20484;-57
2023/02/10 12:40:28;;;;;;;42.40;20.38;;;3.80;99.90;;;;;;5059784;28;20449;-57
2023/02/10 12:43:39;;;;;;;41.17;19.73;;;3.80;99.90;;;;;;5059242;28;20035;-53
2023/02/10 12:46:30;;;;;;;43.90;20.02;;;4.00;99.90;;;;;;5057096;28;20136;-58
2023/02/10 12:49:08;;;;;;;44.20;19.65;;;4.00;99.90;;;;;;5057103;28;20079;-55
2023/02/10 12:52:12;;;;;;;44.15;20.30;;;3.90;99.90;;;;;;5062122;28;20039;-58
2023/02/10 12:54:48;;;;;;;36.65;18.77;;;4.00;99.90;;;;;;5059662;28;20146;-56
2023/02/10 12:57:21;;;;;;;41.25;19.92;;;3.90;99.90;;;;;;5062237;28;20036;-56